Time;durP1;ratioP1;P1;durP2;ratioP2;P2;SDS_P1;SDS_P2;PMS_P1;PMS_P2;Temp;Humidity;BMP_temperature;BMP_pressure;BME280_temperature;BME280_humidity;BME280_pressure;Samples;Min_cycle;Max_cycle;Signal;HPM_P1;HPM_P2
2024/04/12 00:01:13;;;;;;;6.28;2.88;;;;;;;;;;5337971;26;20018;-57
2024/04/12 00:03:39;;;;;;;8.00;2.95;;;;;;;;;;5348678;26;20009;-57
2024/04/12 00:06:07;;;;;;;11.02;2.92;;;;;;;;;;5348567;26;20029;-57
2024/04/12 00:08:32;;;;;;;17.10;3.85;;;;;;;;;;5317015;26;20010;-57
2024/04/12 00:11:00;;;;;;;10.32;3.10;;;;;;;;;;5314267;27;20064;-57
2024/04/12 00:13:26;;;;;;;9.70;3.50;;;;;;;;;;5321529;26;20032;-53
2024/04/12 00:15:55;;;;;;;9.50;2.92;;;;;;;;;;5316855;26;19996;-53
2024/04/12 00:18:20;;;;;;;12.02;3.30;;;;;;;;;;5348536;26;20345;-57
2024/04/12 00:20:47;;;;;;;11.25;2.95;;;;;;;;;;5348497;26;19993;-57
2024/04/12 00:23:12;;;;;;;12.38;3.20;;;;;;;;;;5348370;26;20029;-56
2024/04/12 00:25:39;;;;;;;7.43;2.70;;;;;;;;;;5348565;26;20012;-56
2024/04/12 00:28:05;;;;;;;7.28;2.78;;;;;;;;;;5327700;26;20025;-56
2024/04/12 00:30:41;;;;;;;8.60;2.72;;;;;;;;;;5314033;27;19997;-56
2024/04/12 00:33:10;;;;;;;6.75;2.60;;;;;;;;;;5323290;26;20013;-54
2024/04/12 00:35:39;;;;;;;9.52;2.60;;;;;;;;;;5348408;26;20016;-57
2024/04/12 00:38:09;;;;;;;12.75;2.80;;;;;;;;;;5347583;26;20099;-56
2024/04/12 00:40:52;;;;;;;11.32;3.17;;;;;;;;;;5347901;26;20485;-56
2024/04/12 00:43:18;;;;;;;18.10;3.03;;;;;;;;;;5347629;26;20001;-58
2024/04/12 00:45:45;;;;;;;10.73;3.20;;;;;;;;;;5347806;26;20336;-56
2024/04/12 00:48:10;;;;;;;12.55;3.45;;;;;;;;;;5347469;26;20012;-56
2024/04/12 00:50:37;;;;;;;10.27;4.10;;;;;;;;;;5347286;26;20001;-57
2024/04/12 00:53:03;;;;;;;8.52;3.00;;;;;;;;;;5347915;26;20041;-55
2024/04/12 00:55:32;;;;;;;13.98;3.30;;;;;;;;;;5335419;26;20012;-57
2024/04/12 00:57:59;;;;;;;9.13;2.70;;;;;;;;;;5282594;27;19998;-57
2024/04/12 01:00:34;;;;;;;10.68;2.78;;;;;;;;;;5312897;27;20021;-56
2024/04/12 01:03:05;;;;;;;10.43;2.92;;;;;;;;;;5313248;27;20009;-56
2024/04/12 01:05:32;;;;;;;7.95;3.17;;;;;;;;;;5313109;27;19998;-57
2024/04/12 01:08:00;;;;;;;9.70;3.38;;;;;;;;;;5312915;27;20072;-56
2024/04/12 01:10:25;;;;;;;11.70;2.95;;;;;;;;;;5334365;26;20008;-56
2024/04/12 01:12:56;;;;;;;9.80;2.95;;;;;;;;;;5347210;26;20071;-56
2024/04/12 01:15:23;;;;;;;8.95;2.35;;;;;;;;;;5332095;26;20013;-55
2024/04/12 01:17:48;;;;;;;6.70;2.13;;;;;;;;;;5312794;27;20006;-57
2024/04/12 01:20:16;;;;;;;6.68;2.50;;;;;;;;;;5312908;26;20073;-57
2024/04/12 01:22:44;;;;;;;7.78;2.25;;;;;;;;;;5316803;26;20016;-57
2024/04/12 01:25:10;;;;;;;5.93;2.15;;;;;;;;;;5347124;26;19997;-56
2024/04/12 01:27:37;;;;;;;8.43;2.22;;;;;;;;;;5319013;26;20414;-55
2024/04/12 01:30:03;;;;;;;8.00;2.55;;;;;;;;;;5319240;26;20069;-56
2024/04/12 01:32:28;;;;;;;7.10;2.15;;;;;;;;;;5350470;26;20321;-57
2024/04/12 01:34:55;;;;;;;11.20;2.45;;;;;;;;;;5341537;26;20291;-56
2024/04/12 01:37:20;;;;;;;6.35;2.22;;;;;;;;;;5316093;27;20395;-57
2024/04/12 01:39:49;;;;;;;10.40;2.60;;;;;;;;;;5286175;27;19997;-56
2024/04/12 01:42:16;;;;;;;10.05;2.10;;;;;;;;;;5316008;27;20076;-56
2024/04/12 01:45:13;;;;;;;8.25;2.50;;;;;;;;;;5315889;27;20467;-56
2024/04/12 01:47:34;;;;;;;6.85;2.05;;;;;;;;;;5316156;27;20002;-56
2024/04/12 01:50:01;;;;;;;6.93;2.30;;;;;;;;;;5341784;26;20020;-57
2024/04/12 01:52:26;;;;;;;6.90;2.30;;;;;;;;;;5350376;26;20001;-56
2024/04/12 01:55:05;;;;;;;5.82;2.10;;;;;;;;;;5346782;26;20291;-57
2024/04/12 01:57:30;;;;;;;4.40;1.83;;;;;;;;;;5315662;27;20009;-56
2024/04/12 01:59:55;;;;;;;7.78;2.40;;;;;;;;;;5315724;27;20391;-53
2024/04/12 02:02:21;;;;;;;7.78;2.05;;;;;;;;;;5340071;26;20020;-53
2024/04/12 02:04:51;;;;;;;9.85;1.98;;;;;;;;;;5350315;26;20100;-57
2024/04/12 02:07:16;;;;;;;3.92;1.73;;;;;;;;;;5319369;26;20004;-56
2024/04/12 02:09:41;;;;;;;7.50;2.00;;;;;;;;;;5331136;26;20335;-57
2024/04/12 02:12:07;;;;;;;5.32;2.08;;;;;;;;;;5315798;27;19989;-55
2024/04/12 02:14:32;;;;;;;5.70;2.03;;;;;;;;;;5257434;27;20009;-56
2024/04/12 02:16:58;;;;;;;5.32;2.00;;;;;;;;;;5316268;27;20005;-55
2024/04/12 02:19:25;;;;;;;5.85;2.45;;;;;;;;;;5315660;27;20272;-56
2024/04/12 02:21:50;;;;;;;5.50;2.60;;;;;;;;;;5315512;27;20025;-54
2024/04/12 02:24:18;;;;;;;6.25;2.65;;;;;;;;;;5345676;26;20032;-56
2024/04/12 02:26:46;;;;;;;6.85;3.08;;;;;;;;;;5350029;26;20005;-57
2024/04/12 02:29:11;;;;;;;5.95;2.80;;;;;;;;;;5350159;26;20001;-56
2024/04/12 02:31:36;;;;;;;8.98;3.33;;;;;;;;;;5349468;26;20335;-56
2024/04/12 02:34:02;;;;;;;6.70;3.10;;;;;;;;;;5349338;26;20008;-54
2024/04/12 02:36:30;;;;;;;9.52;2.72;;;;;;;;;;5342728;26;20536;-57
2024/04/12 02:38:56;;;;;;;10.27;2.60;;;;;;;;;;5314313;27;20001;-55
2024/04/12 02:41:21;;;;;;;6.82;2.63;;;;;;;;;;5315238;27;20012;-57
2024/04/12 02:43:53;;;;;;;8.85;2.47;;;;;;;;;;5314977;27;20406;-56
2024/04/12 02:46:18;;;;;;;8.48;2.60;;;;;;;;;;5314536;27;20338;-57
2024/04/12 02:48:43;;;;;;;5.63;2.80;;;;;;;;;;5315046;27;20002;-56
2024/04/12 02:51:12;;;;;;;9.02;2.45;;;;;;;;;;5333876;26;20005;-56
2024/04/12 02:53:38;;;;;;;6.85;2.80;;;;;;;;;;5349650;26;20024;-56
2024/04/12 02:56:08;;;;;;;9.02;3.35;;;;;;;;;;5319096;26;19997;-57
2024/04/12 02:58:38;;;;;;;8.90;3.58;;;;;;;;;;5349568;26;20284;-57
2024/04/12 03:01:04;;;;;;;11.80;3.90;;;;;;;;;;5400958;21;20006;-89
2024/04/12 03:03:30;;;;;;;12.00;3.95;;;;;;;;;;5492419;26;20585;-89
2024/04/12 03:06:00;;;;;;;10.07;3.40;;;;;;;;;;5490096;26;19994;-89
2024/04/12 03:08:26;;;;;;;8.80;3.97;;;;;;;;;;5490670;26;20005;-89
2024/04/12 03:10:55;;;;;;;10.52;3.83;;;;;;;;;;5491295;26;20031;-89
2024/04/12 03:13:21;;;;;;;11.90;4.18;;;;;;;;;;5493721;26;20009;-89
2024/04/12 03:15:47;;;;;;;10.60;3.67;;;;;;;;;;5490813;26;20094;-89
2024/04/12 03:18:15;;;;;;;9.35;3.70;;;;;;;;;;5491174;26;19998;-89
2024/04/12 03:20:41;;;;;;;8.77;3.70;;;;;;;;;;5492699;26;19994;-89
2024/04/12 03:23:07;;;;;;;8.32;4.28;;;;;;;;;;5492592;26;20067;-89
2024/04/12 03:25:37;;;;;;;9.45;3.80;;;;;;;;;;5492446;26;20343;-89
2024/04/12 03:28:04;;;;;;;7.70;4.07;;;;;;;;;;5492970;26;20030;-89
2024/04/12 03:30:30;;;;;;;11.93;3.60;;;;;;;;;;5490465;26;20409;-88
2024/04/12 03:33:02;;;;;;;12.15;5.10;;;;;;;;;;5491354;26;20005;-88
2024/04/12 03:35:54;;;;;;;12.88;4.50;;;;;;;;;;5497499;26;19994;-88
2024/04/12 03:38:25;;;;;;;9.25;4.85;;;;;;;;;;5496622;26;19998;-89
2024/04/12 03:40:52;;;;;;;;;;;;;;;;;;5494852;26;20338;-88
2024/04/12 03:43:21;;;;;;;9.60;4.90;;;;;;;;;;5502358;26;19936;-88
2024/04/12 03:46:15;;;;;;;9.38;4.97;;;;;;;;;;5497505;26;20046;-88
2024/04/12 03:48:42;;;;;;;8.82;5.00;;;;;;;;;;5482311;26;20029;-88
2024/04/12 03:51:07;;;;;;;11.45;4.70;;;;;;;;;;5489708;26;20054;-89
2024/04/12 03:53:33;;;;;;;9.18;4.85;;;;;;;;;;5491161;26;19998;-88
2024/04/12 03:56:01;;;;;;;8.20;4.28;;;;;;;;;;5490868;26;20064;-88
2024/04/12 03:58:29;;;;;;;11.98;4.65;;;;;;;;;;5492741;26;19990;-89
2024/04/12 04:00:56;;;;;;;7.72;5.03;;;;;;;;;;5492676;21;20004;-58
2024/04/12 04:03:33;;;;;;;9.40;4.93;;;;;;;;;;5419799;26;20091;-57
2024/04/12 04:05:58;;;;;;;7.82;4.80;;;;;;;;;;5419253;26;19996;-57
2024/04/12 04:08:23;;;;;;;8.68;4.90;;;;;;;;;;5419228;26;20005;-58
2024/04/12 04:10:50;;;;;;;9.95;4.53;;;;;;;;;;5419916;26;19999;-57
2024/04/12 04:13:17;;;;;;;10.60;5.10;;;;;;;;;;5419739;26;20091;-55
2024/04/12 04:15:49;;;;;;;9.65;5.03;;;;;;;;;;5418258;26;20000;-59
2024/04/12 04:18:17;;;;;;;9.25;5.40;;;;;;;;;;5419351;26;20333;-59
2024/04/12 04:20:42;;;;;;;9.27;4.90;;;;;;;;;;5419812;26;19996;-59
2024/04/12 04:23:07;;;;;;;10.63;4.78;;;;;;;;;;5420114;26;20401;-58
2024/04/12 04:25:33;;;;;;;7.88;4.70;;;;;;;;;;5419793;26;19992;-58
2024/04/12 04:27:58;;;;;;;11.63;4.78;;;;;;;;;;5419900;26;19991;-57
2024/04/12 04:30:25;;;;;;;9.13;5.30;;;;;;;;;;5419369;26;19996;-58
2024/04/12 04:32:50;;;;;;;12.60;5.75;;;;;;;;;;5419665;26;20066;-58
2024/04/12 04:35:15;;;;;;;12.15;6.15;;;;;;;;;;5417743;26;19999;-58
2024/04/12 04:37:41;;;;;;;10.27;5.75;;;;;;;;;;5418403;26;20281;-56
2024/04/12 04:40:16;;;;;;;11.18;6.75;;;;;;;;;;5419478;26;20058;-58
2024/04/12 04:42:43;;;;;;;10.82;6.93;;;;;;;;;;5419220;26;19996;-58
2024/04/12 04:45:08;;;;;;;10.52;6.63;;;;;;;;;;5419239;26;20011;-59
2024/04/12 04:47:39;;;;;;;13.32;6.82;;;;;;;;;;5418913;26;19991;-59
2024/04/12 04:50:05;;;;;;;10.93;7.47;;;;;;;;;;5419442;26;19995;-58
2024/04/12 04:52:34;;;;;;;13.27;6.97;;;;;;;;;;5419222;26;19995;-59
2024/04/12 04:54:59;;;;;;;13.07;6.85;;;;;;;;;;5418979;26;20336;-58
2024/04/12 04:57:25;;;;;;;12.13;7.20;;;;;;;;;;5418926;26;20003;-58
2024/04/12 04:59:50;;;;;;;17.60;7.50;;;;;;;;;;5419172;26;20091;-58
2024/04/12 05:02:15;;;;;;;12.73;7.30;;;;;;;;;;5421192;26;19996;-58
2024/04/12 05:04:42;;;;;;;11.25;6.07;;;;;;;;;;5423052;26;19991;-56
2024/04/12 05:07:07;;;;;;;12.85;6.68;;;;;;;;;;5422999;26;20015;-59
2024/04/12 05:09:32;;;;;;;12.07;6.72;;;;;;;;;;5422351;26;19991;-58
2024/04/12 05:11:58;;;;;;;15.85;6.63;;;;;;;;;;5422638;26;20003;-58
2024/04/12 05:17:06;;;;;;;11.27;6.20;;;;;;;;;;5423116;26;20011;-58
2024/04/12 05:19:32;;;;;;;11.82;5.60;;;;;;;;;;5422127;26;20007;-58
2024/04/12 05:22:03;;;;;;;11.57;5.90;;;;;;;;;;5422093;26;20018;-58
2024/04/12 05:24:29;;;;;;;11.65;5.90;;;;;;;;;;5422075;26;20070;-59
2024/04/12 05:27:01;;;;;;;11.27;6.05;;;;;;;;;;5422453;26;19991;-59
2024/04/12 05:29:28;;;;;;;9.70;5.38;;;;;;;;;;5420060;26;20296;-59
2024/04/12 05:31:56;;;;;;;14.27;5.75;;;;;;;;;;5420311;26;20351;-58
2024/04/12 05:34:21;;;;;;;11.25;5.25;;;;;;;;;;5422349;26;20004;-58
2024/04/12 05:36:47;;;;;;;9.63;4.65;;;;;;;;;;5421780;26;20024;-58
2024/04/12 05:39:13;;;;;;;11.88;5.30;;;;;;;;;;5422381;26;20304;-59
2024/04/12 05:41:38;;;;;;;10.93;4.88;;;;;;;;;;5422409;26;20060;-58
2024/04/12 05:44:06;;;;;;;14.13;5.15;;;;;;;;;;5422304;26;19995;-57
2024/04/12 05:46:32;;;;;;;12.80;5.60;;;;;;;;;;5421806;26;20294;-58
2024/04/12 05:49:09;;;;;;;12.65;5.07;;;;;;;;;;5421944;26;19996;-59
2024/04/12 05:51:34;;;;;;;9.25;4.72;;;;;;;;;;5421875;26;20000;-58
2024/04/12 05:54:10;;;;;;;10.73;4.80;;;;;;;;;;5422063;26;20001;-57
2024/04/12 05:56:39;;;;;;;9.80;4.93;;;;;;;;;;5422234;26;19995;-59
2024/04/12 05:59:04;;;;;;;8.60;5.05;;;;;;;;;;5421108;26;20007;-59
2024/04/12 06:01:33;;;;;;;8.50;4.55;;;;;;;;;;5422194;26;20283;-59
2024/04/12 06:03:59;;;;;;;8.95;5.13;;;;;;;;;;5421701;26;19995;-58
2024/04/12 06:06:30;;;;;;;11.23;4.78;;;;;;;;;;5421821;26;20061;-58
2024/04/12 06:08:58;;;;;;;10.15;4.97;;;;;;;;;;5421258;26;19992;-59
2024/04/12 06:11:25;;;;;;;6.93;4.18;;;;;;;;;;5421497;26;20026;-58
2024/04/12 06:13:53;;;;;;;11.50;5.38;;;;;;;;;;5420603;26;19999;-59
2024/04/12 06:16:19;;;;;;;8.77;4.70;;;;;;;;;;5421643;26;19995;-57
2024/04/12 06:18:45;;;;;;;9.95;5.28;;;;;;;;;;5422004;26;20412;-59
2024/04/12 06:21:10;;;;;;;10.85;5.65;;;;;;;;;;5421636;26;19996;-59
2024/04/12 06:23:37;;;;;;;10.77;5.90;;;;;;;;;;5421351;26;20002;-58
2024/04/12 06:26:04;;;;;;;9.40;5.78;;;;;;;;;;5421869;26;20415;-59
2024/04/12 06:28:30;;;;;;;11.77;5.85;;;;;;;;;;5421633;26;20039;-58
2024/04/12 06:30:59;;;;;;;12.27;6.50;;;;;;;;;;5421757;26;20305;-55
2024/04/12 06:33:24;;;;;;;10.32;5.70;;;;;;;;;;5421314;26;20404;-58
2024/04/12 06:35:50;;;;;;;10.23;5.82;;;;;;;;;;5421266;26;20008;-58
2024/04/12 06:38:21;;;;;;;10.85;4.85;;;;;;;;;;5421587;26;20032;-59
2024/04/12 06:40:52;;;;;;;8.90;5.45;;;;;;;;;;5420912;26;20415;-58
2024/04/12 06:43:20;;;;;;;;;;;;;;;;;;5421928;26;20304;-58
2024/04/12 06:45:55;;;;;;;9.13;5.65;;;;;;;;;;5422028;26;20206;-58
2024/04/12 06:48:26;;;;;;;12.18;5.30;;;;;;;;;;5421351;26;19999;-57
2024/04/12 06:50:54;;;;;;;12.67;5.23;;;;;;;;;;5419661;26;19999;-58
2024/04/12 06:53:21;;;;;;;9.68;5.30;;;;;;;;;;5421171;26;19996;-57
2024/04/12 06:55:48;;;;;;;9.20;5.10;;;;;;;;;;5421352;26;20339;-58
2024/04/12 06:58:13;;;;;;;8.07;4.82;;;;;;;;;;5419875;26;20003;-58
2024/04/12 07:00:38;;;;;;;10.90;4.95;;;;;;;;;;5421287;26;20005;-58
2024/04/12 07:03:07;;;;;;;13.98;5.13;;;;;;;;;;5420831;26;20047;-59
2024/04/12 07:05:33;;;;;;;12.05;5.28;;;;;;;;;;5420878;26;20006;-59
2024/04/12 07:07:58;;;;;;;11.88;4.75;;;;;;;;;;5420793;26;20408;-58
2024/04/12 07:10:27;;;;;;;9.88;4.72;;;;;;;;;;5421194;26;20003;-59
2024/04/12 07:12:55;;;;;;;9.45;4.65;;;;;;;;;;5421230;26;19996;-58
2024/04/12 07:15:21;;;;;;;10.25;4.50;;;;;;;;;;5421197;26;20008;-58
2024/04/12 07:17:47;;;;;;;12.13;4.65;;;;;;;;;;5420969;26;19996;-58
2024/04/12 07:20:21;;;;;;;10.98;4.70;;;;;;;;;;5420960;26;19999;-59
2024/04/12 07:22:49;;;;;;;8.07;4.53;;;;;;;;;;5420682;26;19996;-58
2024/04/12 07:25:15;;;;;;;9.98;4.25;;;;;;;;;;5420863;26;20041;-58
2024/04/12 07:27:41;;;;;;;8.27;4.00;;;;;;;;;;5420660;26;20006;-58
2024/04/12 07:30:06;;;;;;;10.63;4.68;;;;;;;;;;5420735;26;19999;-58
2024/04/12 07:32:35;;;;;;;7.60;3.80;;;;;;;;;;5420917;26;20007;-58
2024/04/12 07:35:08;;;;;;;8.70;3.80;;;;;;;;;;5420553;26;20329;-59
2024/04/12 07:37:37;;;;;;;7.93;4.28;;;;;;;;;;5420459;26;19999;-58
2024/04/12 07:40:24;;;;;;;7.88;4.00;;;;;;;;;;5420723;26;19995;-56
2024/04/12 07:42:50;;;;;;;9.43;3.90;;;;;;;;;;5420581;26;20419;-58
2024/04/12 07:45:17;;;;;;;9.55;4.32;;;;;;;;;;5420661;26;19995;-59
2024/04/12 07:47:53;;;;;;;6.57;4.03;;;;;;;;;;5420561;26;20290;-59
2024/04/12 07:50:29;;;;;;;9.40;4.15;;;;;;;;;;5420298;26;20023;-60
2024/04/12 07:55:58;;;;;;;8.43;4.40;;;;;;;;;;5422087;26;20014;-59
2024/04/12 07:58:26;;;;;;;10.63;4.25;;;;;;;;;;5419521;26;20007;-61
2024/04/12 08:01:09;;;;;;;8.68;4.50;;;;;;;;;;5420267;26;20419;-60
2024/04/12 08:03:38;;;;;;;8.50;4.05;;;;;;;;;;5418672;26;20027;-60
2024/04/12 08:06:05;;;;;;;8.30;3.72;;;;;;;;;;5420533;26;20078;-59
2024/04/12 08:08:31;;;;;;;7.28;4.00;;;;;;;;;;5420024;26;20072;-59
2024/04/12 08:10:57;;;;;;;9.43;4.22;;;;;;;;;;5420205;26;20416;-59
2024/04/12 08:13:28;;;;;;;13.73;4.85;;;;;;;;;;5420219;26;20007;-57
2024/04/12 08:15:53;;;;;;;13.27;4.63;;;;;;;;;;5419916;26;20061;-59
2024/04/12 08:18:20;;;;;;;8.50;4.25;;;;;;;;;;5420215;26;20011;-59
2024/04/12 08:20:46;;;;;;;9.85;4.50;;;;;;;;;;5420176;26;19999;-57
2024/04/12 08:23:17;;;;;;;11.23;5.03;;;;;;;;;;5420092;26;19996;-59
2024/04/12 08:25:48;;;;;;;;;;;;;;;;;;5420573;26;20070;-59
2024/04/12 08:28:14;;;;;;;12.00;5.18;;;;;;;;;;5420223;26;19956;-59
2024/04/12 08:30:51;;;;;;;9.68;4.47;;;;;;;;;;5419874;26;20286;-59
2024/04/12 08:33:23;;;;;;;12.10;4.93;;;;;;;;;;5419725;26;20351;-58
2024/04/12 08:35:55;;;;;;;10.27;5.13;;;;;;;;;;5419885;26;20304;-58
2024/04/12 08:38:21;;;;;;;12.30;5.45;;;;;;;;;;5423511;26;20011;-59
2024/04/12 08:40:46;;;;;;;10.52;5.60;;;;;;;;;;5423245;26;20069;-59
2024/04/12 08:43:15;;;;;;;11.43;4.72;;;;;;;;;;5423530;26;20325;-59
2024/04/12 08:45:43;;;;;;;15.68;5.95;;;;;;;;;;5422908;26;19999;-59
2024/04/12 08:48:09;;;;;;;13.80;5.30;;;;;;;;;;5423176;26;20000;-59
2024/04/12 08:50:35;;;;;;;17.60;6.63;;;;;;;;;;5423952;26;20010;-59
2024/04/12 08:53:11;;;;;;;9.55;5.15;;;;;;;;;;5424278;26;20296;-59
2024/04/12 08:55:42;;;;;;;13.27;5.53;;;;;;;;;;5423310;26;20018;-59
2024/04/12 08:58:08;;;;;;;9.23;4.90;;;;;;;;;;5421517;26;20003;-59
2024/04/12 09:00:33;;;;;;;11.23;4.85;;;;;;;;;;5422669;26;20006;-59
2024/04/12 09:03:03;;;;;;;13.07;5.03;;;;;;;;;;5424133;26;20007;-59
2024/04/12 09:05:28;;;;;;;10.02;5.10;;;;;;;;;;5422046;26;19996;-59
2024/04/12 09:07:58;;;;;;;10.25;4.70;;;;;;;;;;5423120;26;20001;-58
2024/04/12 09:10:25;;;;;;;17.38;6.47;;;;;;;;;;5422625;26;20012;-59
2024/04/12 09:12:50;;;;;;;13.63;6.47;;;;;;;;;;5423112;26;20351;-59
2024/04/12 09:15:27;;;;;;;14.30;5.30;;;;;;;;;;5422796;26;20068;-59
2024/04/12 09:18:04;;;;;;;8.80;5.22;;;;;;;;;;5422807;26;20011;-59
2024/04/12 09:20:30;;;;;;;10.75;4.70;;;;;;;;;;5423332;26;20032;-59
2024/04/12 09:23:13;;;;;;;8.35;4.72;;;;;;;;;;5422434;26;20367;-59
2024/04/12 09:25:41;;;;;;;12.75;5.30;;;;;;;;;;5423067;26;19996;-59
2024/04/12 09:28:12;;;;;;;13.43;4.70;;;;;;;;;;5422833;26;19995;-59
2024/04/12 09:33:26;;;;;;;15.77;5.72;;;;;;;;;;5396561;26;20034;-59
2024/04/12 09:35:52;;;;;;;18.77;6.70;;;;;;;;;;5422706;26;20010;-59
2024/04/12 09:38:21;;;;;;;14.18;5.68;;;;;;;;;;5422659;26;20363;-59
2024/04/12 09:40:52;;;;;;;13.80;5.53;;;;;;;;;;5422785;26;20412;-59
2024/04/12 09:45:52;;;;;;;16.88;6.32;;;;;;;;;;5422847;26;20420;-59
2024/04/12 10:37:59;;;;;;;10.25;3.35;;;;;;;;;;5422397;26;20064;-59
2024/04/12 10:40:24;;;;;;;10.43;3.50;;;;;;;;;;5422023;26;20003;-57
2024/04/12 10:42:52;;;;;;;9.20;3.03;;;;;;;;;;5420995;26;20291;-59
2024/04/12 10:45:18;;;;;;;11.43;3.47;;;;;;;;;;5420951;26;20003;-58
2024/04/12 10:47:47;;;;;;;10.80;3.00;;;;;;;;;;5421586;26;20010;-59
2024/04/12 10:50:13;;;;;;;12.88;3.13;;;;;;;;;;5421603;26;20007;-58
2024/04/12 10:52:43;;;;;;;10.15;3.45;;;;;;;;;;5421847;26;20073;-59
2024/04/12 10:55:09;;;;;;;10.13;3.20;;;;;;;;;;5421167;26;20003;-59
2024/04/12 10:57:41;;;;;;;9.40;2.85;;;;;;;;;;5421398;26;20400;-59
2024/04/12 11:00:07;;;;;;;11.85;2.80;;;;;;;;;;5420730;26;20000;-59
2024/04/12 11:02:33;;;;;;;6.72;2.78;;;;;;;;;;5419279;26;20003;-59
2024/04/12 11:07:42;;;;;;;8.57;2.78;;;;;;;;;;5422873;26;20428;-59
2024/04/12 11:10:22;;;;;;;8.32;2.80;;;;;;;;;;5421782;26;20073;-59
2024/04/12 11:12:51;;;;;;;8.85;2.97;;;;;;;;;;5420163;26;20003;-59
2024/04/12 11:31:48;;;;;;;8.43;2.28;;;;;;;;;;5420893;26;20010;-59
2024/04/12 11:34:20;;;;;;;6.28;2.38;;;;;;;;;;5421181;26;20381;-58
2024/04/12 11:36:45;;;;;;;6.45;2.20;;;;;;;;;;5421229;26;20423;-57
2024/04/12 11:39:17;;;;;;;7.28;2.50;;;;;;;;;;5420782;26;19992;-60
2024/04/12 11:41:45;;;;;;;8.82;2.22;;;;;;;;;;5420952;26;20010;-58
2024/04/12 11:44:17;;;;;;;9.23;2.80;;;;;;;;;;5420823;26;20015;-57
2024/04/12 11:46:45;;;;;;;7.60;2.28;;;;;;;;;;5420914;26;20015;-57
2024/04/12 11:49:11;;;;;;;11.02;2.17;;;;;;;;;;5385310;26;20001;-57
2024/04/12 11:51:37;;;;;;;10.82;3.08;;;;;;;;;;5390864;26;20400;-59
2024/04/12 11:54:05;;;;;;;9.43;1.98;;;;;;;;;;5421239;26;19996;-57
2024/04/12 11:56:31;;;;;;;11.55;2.17;;;;;;;;;;5420893;26;20408;-59
2024/04/12 11:58:58;;;;;;;16.55;4.03;;;;;;;;;;5420896;26;20005;-57
2024/04/12 12:01:23;;;;;;;6.13;1.77;;;;;;;;;;5419346;26;20014;-58
2024/04/12 12:03:49;;;;;;;8.00;1.80;;;;;;;;;;5418159;26;19991;-58
2024/04/12 12:06:16;;;;;;;7.28;2.10;;;;;;;;;;5420332;26;20003;-58
2024/04/12 12:08:41;;;;;;;11.75;2.17;;;;;;;;;;5420395;26;20060;-57
2024/04/12 12:11:10;;;;;;;8.82;2.53;;;;;;;;;;5419067;26;20412;-58
2024/04/12 12:13:35;;;;;;;6.57;1.63;;;;;;;;;;5420731;26;20007;-58
2024/04/12 12:16:03;;;;;;;9.93;2.20;;;;;;;;;;5389280;26;20003;-58
2024/04/12 12:18:29;;;;;;;5.65;1.60;;;;;;;;;;5420274;26;19999;-58
2024/04/12 12:20:56;;;;;;;6.68;1.90;;;;;;;;;;5420094;26;20482;-58
2024/04/12 12:23:21;;;;;;;6.70;1.90;;;;;;;;;;5420051;26;20003;-58
2024/04/12 12:25:49;;;;;;;8.57;2.63;;;;;;;;;;5420178;26;19995;-57
2024/04/12 12:28:15;;;;;;;4.95;1.90;;;;;;;;;;5419852;26;20045;-54
2024/04/12 12:30:40;;;;;;;5.50;1.65;;;;;;;;;;5420047;26;20004;-57
2024/04/12 12:33:10;;;;;;;7.93;2.30;;;;;;;;;;5420031;26;20011;-58
2024/04/12 12:35:35;;;;;;;10.05;2.22;;;;;;;;;;5420357;26;20065;-58
2024/04/12 12:38:01;;;;;;;5.55;1.65;;;;;;;;;;5420147;26;20277;-56
2024/04/12 12:40:29;;;;;;;6.30;1.83;;;;;;;;;;5420242;26;20061;-56
2024/04/12 12:42:55;;;;;;;13.40;3.20;;;;;;;;;;5420075;26;20004;-56
2024/04/12 12:45:20;;;;;;;5.97;2.20;;;;;;;;;;5420141;26;20010;-56
2024/04/12 12:47:46;;;;;;;7.13;2.30;;;;;;;;;;5419732;26;19992;-59
2024/04/12 12:50:22;;;;;;;5.65;1.90;;;;;;;;;;5420028;26;20011;-57
2024/04/12 12:52:51;;;;;;;6.18;1.55;;;;;;;;;;5420279;26;20090;-56
2024/04/12 12:55:19;;;;;;;6.70;1.92;;;;;;;;;;5419773;26;20007;-56
2024/04/12 12:57:44;;;;;;;7.57;1.85;;;;;;;;;;5419933;26;19991;-56
2024/04/12 13:00:18;;;;;;;11.65;2.10;;;;;;;;;;5419849;26;20408;-57
2024/04/12 13:02:44;;;;;;;9.00;1.70;;;;;;;;;;5417587;26;20069;-57
2024/04/12 13:05:14;;;;;;;5.68;1.67;;;;;;;;;;5418871;26;20383;-57
2024/04/12 13:07:39;;;;;;;5.18;1.80;;;;;;;;;;5419692;26;20002;-57
2024/04/12 13:10:12;;;;;;;7.63;2.13;;;;;;;;;;5419546;26;19995;-57
2024/04/12 13:12:38;;;;;;;5.53;2.05;;;;;;;;;;5418911;26;19999;-57
2024/04/12 13:15:03;;;;;;;7.90;1.88;;;;;;;;;;5419331;26;20015;-57
2024/04/12 13:17:36;;;;;;;5.95;1.38;;;;;;;;;;5418937;26;20433;-58
2024/04/12 13:20:06;;;;;;;7.70;2.10;;;;;;;;;;5419091;26;20011;-56
2024/04/12 13:22:32;;;;;;;6.90;1.90;;;;;;;;;;5420063;26;19999;-58
2024/04/12 13:24:57;;;;;;;7.30;2.10;;;;;;;;;;5423163;26;19995;-58
2024/04/12 13:27:23;;;;;;;8.98;2.17;;;;;;;;;;5422882;26;20050;-60
2024/04/12 13:29:48;;;;;;;5.28;1.77;;;;;;;;;;5422737;26;20347;-57
2024/04/12 13:32:14;;;;;;;8.13;2.35;;;;;;;;;;5422933;26;20013;-56
2024/04/12 13:34:39;;;;;;;5.03;1.70;;;;;;;;;;5422543;26;19998;-56
2024/04/12 13:37:06;;;;;;;8.80;2.55;;;;;;;;;;5421963;26;20022;-57
2024/04/12 13:39:34;;;;;;;6.47;1.90;;;;;;;;;;5422867;26;20348;-58
2024/04/12 13:42:03;;;;;;;6.65;2.30;;;;;;;;;;5422774;26;20006;-57
2024/04/12 13:52:39;;;;;;;7.43;2.20;;;;;;;;;;5423102;26;20130;-56
2024/04/12 13:55:10;;;;;;;4.88;1.65;;;;;;;;;;5422231;26;20396;-58
2024/04/12 13:57:36;;;;;;;5.80;2.05;;;;;;;;;;5421814;26;20036;-56
2024/04/12 14:00:09;;;;;;;6.82;1.80;;;;;;;;;;5422170;26;20289;-55
2024/04/12 14:02:35;;;;;;;4.63;2.00;;;;;;;;;;5420454;26;20007;-56
2024/04/12 14:05:02;;;;;;;7.25;1.98;;;;;;;;;;5422330;26;19995;-55
2024/04/12 14:07:33;;;;;;;8.50;2.20;;;;;;;;;;5419769;26;20004;-56
2024/04/12 14:10:01;;;;;;;10.32;2.35;;;;;;;;;;5421695;26;20007;-58
2024/04/12 14:12:26;;;;;;;6.35;2.00;;;;;;;;;;5421958;26;20447;-58
2024/04/12 14:14:52;;;;;;;6.40;2.15;;;;;;;;;;5422102;26;19992;-55
2024/04/12 14:17:17;;;;;;;5.90;2.20;;;;;;;;;;5421840;26;20004;-55
2024/04/12 14:19:42;;;;;;;6.22;2.13;;;;;;;;;;5421708;26;19991;-55
2024/04/12 14:22:08;;;;;;;6.28;2.05;;;;;;;;;;5421835;26;20481;-56
2024/04/12 14:27:17;;;;;;;5.85;2.38;;;;;;;;;;5395356;26;20018;-55
2024/04/12 14:29:42;;;;;;;4.90;2.00;;;;;;;;;;5421337;26;19995;-56
2024/04/12 14:32:11;;;;;;;7.60;2.10;;;;;;;;;;5421788;26;20405;-52
2024/04/12 14:34:36;;;;;;;7.35;2.58;;;;;;;;;;5420536;26;19999;-56
2024/04/12 14:37:02;;;;;;;7.47;2.53;;;;;;;;;;5421400;26;20344;-56
2024/04/12 14:39:31;;;;;;;9.80;2.58;;;;;;;;;;5422132;26;20034;-56
2024/04/12 14:41:57;;;;;;;7.50;2.40;;;;;;;;;;5421615;26;20010;-55
2024/04/12 14:44:22;;;;;;;8.98;2.47;;;;;;;;;;5421650;26;20003;-55
2024/04/12 14:46:48;;;;;;;4.40;1.90;;;;;;;;;;5421522;26;20069;-56
2024/04/12 14:49:13;;;;;;;6.55;2.50;;;;;;;;;;5421492;26;20087;-56
2024/04/12 14:51:42;;;;;;;8.27;2.30;;;;;;;;;;5421798;26;20061;-55
2024/04/12 14:54:09;;;;;;;9.05;3.03;;;;;;;;;;5421570;26;19999;-56
2024/04/12 14:56:34;;;;;;;7.63;2.25;;;;;;;;;;5421264;26;20405;-56
2024/04/12 14:58:59;;;;;;;6.18;2.30;;;;;;;;;;5419333;26;20013;-55
2024/04/12 15:01:25;;;;;;;10.35;2.58;;;;;;;;;;5420213;26;20007;-56
2024/04/12 15:50:49;;;;;;;7.97;4.18;;;;;;;;;;5420720;26;20401;-57
2024/04/12 15:53:15;;;;;;;11.98;3.60;;;;;;;;;;5397811;26;20011;-57
2024/04/12 15:55:32;;;;;;;10.65;3.13;;;;;;;;;;5420681;26;19996;-57
2024/04/12 16:11:37;;;;;;;14.15;4.05;;;;;;;;;;5421778;26;20018;-58
2024/04/12 16:14:03;;;;;;;7.68;3.35;;;;;;;;;;5419932;26;20003;-57
2024/04/12 16:16:29;;;;;;;11.38;2.60;;;;;;;;;;5419827;26;20047;-57
2024/04/12 16:18:54;;;;;;;11.15;3.00;;;;;;;;;;5420852;26;19999;-57
2024/04/12 16:21:20;;;;;;;9.20;3.13;;;;;;;;;;5419982;26;19999;-56
2024/04/12 16:23:45;;;;;;;11.50;3.30;;;;;;;;;;5420026;26;19995;-57
2024/04/12 16:26:11;;;;;;;10.45;3.33;;;;;;;;;;5420315;26;19992;-58
2024/04/12 16:28:36;;;;;;;12.35;3.78;;;;;;;;;;5420369;26;20292;-58
2024/04/12 16:31:01;;;;;;;7.72;3.00;;;;;;;;;;5420652;26;20284;-58
2024/04/12 16:33:27;;;;;;;9.38;3.42;;;;;;;;;;5418381;26;20015;-58
2024/04/12 16:35:52;;;;;;;10.73;3.50;;;;;;;;;;5420045;26;19995;-57
2024/04/12 16:38:18;;;;;;;11.75;3.15;;;;;;;;;;5419151;26;19999;-56
2024/04/12 16:40:45;;;;;;;11.32;3.35;;;;;;;;;;5420051;26;20297;-57
2024/04/12 16:43:12;;;;;;;11.02;3.65;;;;;;;;;;5419684;26;20007;-57
2024/04/12 16:45:38;;;;;;;13.38;3.05;;;;;;;;;;5419837;26;19999;-56
2024/04/12 16:48:03;;;;;;;7.10;2.92;;;;;;;;;;5419137;26;20012;-57
2024/04/12 16:50:29;;;;;;;14.63;3.42;;;;;;;;;;5419267;26;20000;-56
2024/04/12 16:52:55;;;;;;;11.13;3.17;;;;;;;;;;5419500;26;20348;-57
2024/04/12 16:55:21;;;;;;;10.20;3.63;;;;;;;;;;5419512;26;20448;-57
2024/04/12 16:57:46;;;;;;;9.43;3.08;;;;;;;;;;5421177;26;20023;-56
2024/04/12 17:00:13;;;;;;;11.60;3.40;;;;;;;;;;5423115;26;19996;-57
2024/04/12 17:02:39;;;;;;;9.25;3.35;;;;;;;;;;5422405;26;20316;-59
2024/04/12 17:05:04;;;;;;;7.35;2.78;;;;;;;;;;5422988;26;20042;-59
2024/04/12 17:07:29;;;;;;;7.90;3.03;;;;;;;;;;5422544;26;19992;-60
2024/04/12 17:09:57;;;;;;;10.05;3.20;;;;;;;;;;5423194;26;20081;-59
2024/04/12 17:12:22;;;;;;;8.85;3.50;;;;;;;;;;5422840;26;20026;-60